createdAt,value
2018-12-06T00:00:15.405Z,-386.87
2018-12-06T00:01:15.401Z,-386.99
2018-12-06T00:02:16.002Z,-388.32
2018-12-06T00:03:15.384Z,-385.59
2018-12-06T00:04:16.320Z,-387.85
2018-12-06T00:05:15.929Z,-388.49
2018-12-06T00:06:18.957Z,-389.05
2018-12-06T00:07:15.339Z,-387.98
2018-12-06T00:08:16.908Z,-385.91
2018-12-06T00:09:15.342Z,-388.13
2018-12-06T00:10:15.284Z,-387.30
2018-12-06T00:11:15.297Z,-384.56
2018-12-06T00:12:15.273Z,-385.68
2018-12-06T00:13:15.262Z,-388.52
2018-12-06T00:14:15.256Z,-388.34
2018-12-06T00:15:15.269Z,-384.42
2018-12-06T00:16:15.233Z,-388.86
2018-12-06T00:17:15.902Z,-388.50
2018-12-06T00:18:15.214Z,-386.11
2018-12-06T00:19:15.188Z,-390.21
2018-12-06T00:20:15.205Z,-386.08
2018-12-06T00:21:15.202Z,-391.55
2018-12-06T00:22:15.173Z,-388.42
2018-12-06T00:23:15.158Z,-387.74
2018-12-06T00:24:15.147Z,-388.21
2018-12-06T00:25:15.135Z,-388.11
2018-12-06T00:26:15.149Z,-384.48
2018-12-06T00:27:15.128Z,-387.99
2018-12-06T00:28:15.097Z,-386.21
2018-12-06T00:29:15.089Z,-389.15
2018-12-06T00:30:15.079Z,-384.38
2018-12-06T00:31:15.089Z,-384.39
2018-12-06T00:32:15.059Z,-390.98
2018-12-06T00:33:15.057Z,-386.48
2018-12-06T00:34:15.052Z,-390.64
2018-12-06T00:35:15.023Z,-387.23
2018-12-06T00:36:15.906Z,-389.77
2018-12-06T00:37:15.021Z,-388.12
2018-12-06T00:38:15.008Z,-388.28
2018-12-06T00:39:15.006Z,-386.99
2018-12-06T00:40:14.971Z,-389.20
2018-12-06T00:41:15.963Z,-389.19
2018-12-06T00:42:14.992Z,-388.80
2018-12-06T00:43:15.008Z,-390.04
2018-12-06T00:44:14.924Z,-388.77
2018-12-06T00:45:14.932Z,-389.59
2018-12-06T00:46:14.914Z,-388.11
2018-12-06T00:47:14.982Z,-387.40
2018-12-06T00:48:14.892Z,-387.69
2018-12-06T00:49:14.887Z,-386.71
2018-12-06T00:50:14.871Z,-386.31
2018-12-06T00:51:14.861Z,-388.94
2018-12-06T00:52:14.851Z,-389.24
2018-12-06T00:53:14.859Z,-390.60
2018-12-06T00:54:14.852Z,-385.79
2018-12-06T00:55:14.835Z,-389.75
2018-12-06T00:56:14.809Z,-388.32
2018-12-06T00:57:14.812Z,-387.07
2018-12-06T00:58:14.784Z,-389.00
2018-12-06T00:59:14.782Z,-386.62
2018-12-06T01:00:14.763Z,-386.59
2018-12-06T01:01:14.760Z,-391.36
2018-12-06T01:02:14.763Z,-387.20
2018-12-06T01:03:14.741Z,-390.12
2018-12-06T01:04:15.903Z,-387.68
2018-12-06T01:05:14.733Z,-390.91
2018-12-06T01:06:14.689Z,-389.47
2018-12-06T01:07:14.716Z,-387.54
2018-12-06T01:08:14.699Z,-389.10
2018-12-06T01:09:14.669Z,-388.63
2018-12-06T01:10:14.674Z,-389.71
2018-12-06T01:11:14.642Z,-386.79
2018-12-06T01:12:14.649Z,-389.06
2018-12-06T01:13:14.621Z,-386.20
2018-12-06T01:14:14.659Z,-389.38
2018-12-06T01:15:14.627Z,-388.91
2018-12-06T01:16:14.617Z,-386.66
2018-12-06T01:17:14.576Z,-390.86
2018-12-06T01:18:14.574Z,-387.83
2018-12-06T01:19:16.437Z,-389.04
2018-12-06T01:20:14.544Z,-389.10
2018-12-06T01:21:14.537Z,-387.14
2018-12-06T01:22:14.558Z,-383.53
2018-12-06T01:23:14.538Z,-388.86
2018-12-06T01:24:14.502Z,-387.73
2018-12-06T01:25:14.496Z,-386.87
2018-12-06T01:26:15.430Z,-390.26
2018-12-06T01:27:14.471Z,-388.62
2018-12-06T01:28:14.464Z,-385.21
2018-12-06T01:29:14.481Z,-386.30
2018-12-06T01:30:14.450Z,-387.26
2018-12-06T01:31:14.451Z,-387.11
2018-12-06T01:32:14.420Z,-386.62
2018-12-06T01:33:14.950Z,-386.51
2018-12-06T01:34:14.393Z,-386.43
2018-12-06T01:35:14.412Z,-389.09
2018-12-06T01:36:14.381Z,-386.28
2018-12-06T01:37:15.953Z,-387.17
2018-12-06T01:38:14.351Z,-388.75
2018-12-06T01:39:14.350Z,-385.39
2018-12-06T01:40:14.343Z,-391.56
2018-12-06T01:41:14.363Z,-390.04
2018-12-06T01:42:14.320Z,-387.11
2018-12-06T01:43:14.318Z,-388.26
2018-12-06T01:44:14.946Z,-387.39
2018-12-06T01:45:14.293Z,-387.46
2018-12-06T01:46:14.298Z,-389.09
2018-12-06T01:47:14.261Z,-388.07
2018-12-06T01:48:14.248Z,-388.52
2018-12-06T01:49:14.246Z,-386.99
2018-12-06T01:50:14.241Z,-387.80
2018-12-06T01:51:14.225Z,-387.74
2018-12-06T01:52:14.229Z,-388.23
2018-12-06T01:53:14.200Z,-385.04
2018-12-06T01:54:14.190Z,-388.65
2018-12-06T01:55:14.184Z,-388.65
2018-12-06T01:56:14.203Z,-390.23
2018-12-06T01:57:14.164Z,-386.42
2018-12-06T01:58:14.181Z,-387.66
2018-12-06T01:59:14.163Z,-389.12
2018-12-06T02:00:14.157Z,-387.26
2018-12-06T02:01:14.171Z,-389.10
2018-12-06T02:02:14.178Z,-389.61
2018-12-06T02:03:14.110Z,-389.21
2018-12-06T02:04:14.086Z,-389.30
2018-12-06T02:05:14.094Z,-388.28
2018-12-06T02:06:14.077Z,-389.24
2018-12-06T02:07:14.074Z,-388.24
2018-12-06T02:08:14.058Z,-386.99
2018-12-06T02:09:14.026Z,-389.08
2018-12-06T02:10:14.027Z,-388.05
2018-12-06T02:11:14.014Z,-391.47
2018-12-06T02:12:15.950Z,-390.26
2018-12-06T02:13:14.025Z,-388.26
2018-12-06T02:14:13.976Z,-388.29
2018-12-06T02:15:13.967Z,-388.48
2018-12-06T02:16:13.961Z,-386.54
2018-12-06T02:17:13.947Z,-388.53
2018-12-06T02:18:13.939Z,-389.44
2018-12-06T02:19:13.940Z,-384.71
2018-12-06T02:20:13.915Z,-390.48
2018-12-06T02:21:13.893Z,-386.89
2018-12-06T02:22:13.889Z,-390.76
2018-12-06T02:23:13.875Z,-389.23
2018-12-06T02:24:13.931Z,-391.06
2018-12-06T02:25:13.868Z,-387.36
2018-12-06T02:26:14.441Z,-387.46
2018-12-06T02:27:13.832Z,-390.72
2018-12-06T02:28:13.844Z,-388.14
2018-12-06T02:29:13.814Z,-390.39
2018-12-06T02:30:13.823Z,-391.42
2018-12-06T02:31:13.798Z,-389.14
2018-12-06T02:32:13.804Z,-387.45
2018-12-06T02:33:13.838Z,-390.39
2018-12-06T02:34:13.787Z,-392.28
2018-12-06T02:35:13.752Z,-389.16
2018-12-06T02:36:13.793Z,-390.44
2018-12-06T02:37:13.741Z,-390.42
2018-12-06T02:38:13.711Z,-387.64
2018-12-06T02:39:13.706Z,-386.45
2018-12-06T02:40:13.695Z,-389.98
2018-12-06T02:41:13.775Z,-391.45
2018-12-06T02:42:13.694Z,-389.98
2018-12-06T02:43:14.392Z,-390.80
2018-12-06T02:44:14.389Z,-391.21
2018-12-06T02:45:13.644Z,-388.38
2018-12-06T02:46:13.629Z,-391.07
2018-12-06T02:47:13.642Z,-387.41
2018-12-06T02:48:13.625Z,-387.29
2018-12-06T02:49:14.398Z,-390.46
2018-12-06T02:50:13.597Z,-391.18
2018-12-06T02:51:13.581Z,-388.44
2018-12-06T02:52:13.623Z,-390.40
2018-12-06T02:53:14.404Z,-389.34
2018-12-06T02:54:13.570Z,-389.14
2018-12-06T02:55:13.546Z,-388.98
2018-12-06T02:56:13.531Z,-390.70
2018-12-06T02:57:13.519Z,-389.27
2018-12-06T02:58:13.526Z,-388.61
2018-12-06T02:59:13.617Z,-388.55
2018-12-06T03:00:13.501Z,-387.81
2018-12-06T03:01:15.448Z,-388.93
2018-12-06T03:02:13.461Z,-388.69
2018-12-06T03:03:13.451Z,-387.98
2018-12-06T03:04:13.471Z,-390.19
2018-12-06T03:05:13.434Z,-390.23
2018-12-06T03:06:13.448Z,-387.29
2018-12-06T03:07:13.411Z,-389.75
2018-12-06T03:08:13.403Z,-388.93
2018-12-06T03:09:13.391Z,-389.90
2018-12-06T03:10:21.584Z,-388.45
2018-12-06T03:11:13.387Z,-388.54
2018-12-06T03:12:13.349Z,-390.43
2018-12-06T03:13:13.338Z,-389.41
2018-12-06T03:14:13.350Z,-389.50
2018-12-06T03:15:13.334Z,-390.41
2018-12-06T03:16:13.338Z,-389.92
2018-12-06T03:17:13.298Z,-390.10
2018-12-06T03:18:13.279Z,-390.18
2018-12-06T03:19:13.274Z,-390.27
2018-12-06T03:20:13.261Z,-390.15
2018-12-06T03:21:13.277Z,-389.32
2018-12-06T03:22:13.243Z,-388.95
2018-12-06T03:23:13.280Z,-389.65
2018-12-06T03:24:13.238Z,-389.87
2018-12-06T03:25:13.208Z,-389.44
2018-12-06T03:26:13.210Z,-389.75
2018-12-06T03:27:13.197Z,-391.76
2018-12-06T03:28:13.190Z,-389.71
2018-12-06T03:29:13.185Z,-389.73
2018-12-06T03:30:13.161Z,-389.83
2018-12-06T03:31:13.157Z,-389.27
2018-12-06T03:32:13.141Z,-390.87
2018-12-06T03:33:13.147Z,-390.18
2018-12-06T03:34:13.246Z,-390.72
2018-12-06T03:35:13.152Z,-390.47
2018-12-06T03:36:13.123Z,-391.19
2018-12-06T03:37:13.088Z,-388.23
2018-12-06T03:38:13.078Z,-388.01
2018-12-06T03:39:13.071Z,-391.18
2018-12-06T03:40:13.100Z,-389.09
2018-12-06T03:41:13.052Z,-388.66
2018-12-06T03:42:13.033Z,-387.48
2018-12-06T03:43:13.028Z,-390.23
2018-12-06T03:44:13.023Z,-389.68
2018-12-06T03:45:13.039Z,-386.82
2018-12-06T03:46:13.004Z,-389.93
2018-12-06T03:47:14.948Z,-388.39
2018-12-06T03:48:12.987Z,-390.26
2018-12-06T03:49:12.971Z,-388.06
2018-12-06T03:50:12.960Z,-390.30
2018-12-06T03:51:12.991Z,-387.81
2018-12-06T03:52:13.933Z,-390.61
2018-12-06T03:53:13.927Z,-389.98
2018-12-06T03:54:12.905Z,-387.58
2018-12-06T03:55:12.916Z,-385.90
2018-12-06T03:56:12.925Z,-389.46
2018-12-06T03:57:12.888Z,-391.01
2018-12-06T03:58:13.448Z,-390.53
2018-12-06T03:59:12.863Z,-391.21
2018-12-06T04:00:12.871Z,-388.44
2018-12-06T04:01:12.852Z,-390.84
2018-12-06T04:02:14.481Z,-389.71
2018-12-06T04:03:12.828Z,-388.87
2018-12-06T04:04:12.818Z,-385.89
2018-12-06T04:05:12.816Z,-390.03
2018-12-06T04:06:12.799Z,-389.85
2018-12-06T04:07:12.777Z,-388.67
2018-12-06T04:08:12.770Z,-388.86
2018-12-06T04:09:12.755Z,-389.42
2018-12-06T04:10:12.730Z,-388.97
2018-12-06T04:11:14.490Z,-389.96
2018-12-06T04:12:12.999Z,-389.27
2018-12-06T04:13:12.752Z,-390.23
2018-12-06T04:14:12.741Z,-390.04
2018-12-06T04:15:12.753Z,-389.93
2018-12-06T04:16:12.688Z,-391.98
2018-12-06T04:17:12.695Z,-389.34
2018-12-06T04:18:12.660Z,-391.43
2018-12-06T04:19:14.520Z,-389.32
2018-12-06T04:20:12.668Z,-391.46
2018-12-06T04:21:12.634Z,-389.41
2018-12-06T04:22:15.491Z,-392.15
2018-12-06T04:23:12.615Z,-384.34
2018-12-06T04:24:12.582Z,-391.02
2018-12-06T04:25:12.583Z,-390.32
2018-12-06T04:26:12.581Z,-388.18
2018-12-06T04:27:12.568Z,-389.83
2018-12-06T04:28:12.566Z,-392.91
2018-12-06T04:29:12.530Z,-389.75
2018-12-06T04:30:12.525Z,-390.15
2018-12-06T04:31:12.534Z,-390.40
2018-12-06T04:32:12.502Z,-391.50
2018-12-06T04:33:12.498Z,-390.04
2018-12-06T04:34:13.986Z,-390.52
2018-12-06T04:35:12.469Z,-389.80
2018-12-06T04:36:13.990Z,-391.98
2018-12-06T04:37:12.527Z,-390.56
2018-12-06T04:38:12.449Z,-386.68
2018-12-06T04:39:13.449Z,-393.19
2018-12-06T04:40:12.406Z,-391.32
2018-12-06T04:41:13.412Z,-389.86
2018-12-06T04:42:12.397Z,-388.35
2018-12-06T04:43:12.404Z,-387.69
2018-12-06T04:44:12.382Z,-386.59
2018-12-06T04:45:12.379Z,-387.34
2018-12-06T04:46:12.362Z,-389.22
2018-12-06T04:47:14.256Z,-391.35
2018-12-06T04:48:12.342Z,-388.95
2018-12-06T04:49:12.320Z,-389.09
2018-12-06T04:50:12.316Z,-388.53
2018-12-06T04:51:12.307Z,-384.56
2018-12-06T04:52:13.310Z,-388.21
2018-12-06T04:53:12.974Z,-387.26
2018-12-06T04:54:12.264Z,-387.49
2018-12-06T04:55:12.304Z,-387.83
2018-12-06T04:56:12.255Z,-388.69
2018-12-06T04:57:12.240Z,-390.70
2018-12-06T04:58:12.239Z,-388.66
2018-12-06T04:59:13.972Z,-389.72
2018-12-06T05:00:12.223Z,-388.69
2018-12-06T05:01:12.206Z,-387.92
2018-12-06T05:02:12.178Z,-386.79
2018-12-06T05:03:12.193Z,-390.20
2018-12-06T05:04:12.158Z,-389.63
2018-12-06T05:05:12.146Z,-389.35
2018-12-06T05:06:12.154Z,-387.56
2018-12-06T05:07:12.147Z,-389.00
2018-12-06T05:08:12.105Z,-388.34
2018-12-06T05:09:12.108Z,-388.95
2018-12-06T05:10:12.099Z,-388.78
2018-12-06T05:11:12.097Z,-384.84
2018-12-06T05:12:12.074Z,-386.33
2018-12-06T05:13:12.070Z,-387.19
2018-12-06T05:14:12.079Z,-385.94
2018-12-06T05:15:12.050Z,-388.76
2018-12-06T05:16:12.032Z,-390.15
2018-12-06T05:17:12.021Z,-386.34
2018-12-06T05:18:12.007Z,-387.18
2018-12-06T05:19:12.006Z,-386.64
2018-12-06T05:20:13.992Z,-387.72
2018-12-06T05:21:11.986Z,-383.29
2018-12-06T05:22:11.995Z,-387.04
2018-12-06T05:23:13.488Z,-386.54
2018-12-06T05:24:11.950Z,-385.11
2018-12-06T05:25:13.469Z,-386.07
2018-12-06T05:26:11.943Z,-385.28
2018-12-06T05:27:11.921Z,-385.21
2018-12-06T05:28:12.897Z,-383.60
2018-12-06T05:29:11.889Z,-388.92
2018-12-06T05:30:11.896Z,-387.09
2018-12-06T05:31:11.866Z,-389.03
2018-12-06T05:32:11.900Z,-384.99
2018-12-06T05:33:11.848Z,-384.63
2018-12-06T05:34:11.834Z,-386.82
2018-12-06T05:35:11.844Z,-383.48
2018-12-06T05:36:11.843Z,-385.54
2018-12-06T05:37:11.924Z,-384.33
2018-12-06T05:38:11.794Z,-387.26
2018-12-06T05:39:11.784Z,-385.23
2018-12-06T05:40:11.767Z,-388.81
2018-12-06T05:41:11.762Z,-385.40
2018-12-06T05:42:11.752Z,-387.36
2018-12-06T05:43:11.746Z,-385.54
2018-12-06T05:44:11.727Z,-386.29
2018-12-06T05:45:12.468Z,-386.00
2018-12-06T05:46:11.703Z,-383.63
2018-12-06T05:47:11.721Z,-386.29
2018-12-06T05:48:11.689Z,-381.01
2018-12-06T05:49:11.671Z,-386.63
2018-12-06T05:50:11.664Z,-385.64
2018-12-06T05:51:11.650Z,-382.69
2018-12-06T05:52:11.649Z,-385.78
2018-12-06T05:53:12.674Z,-384.33
2018-12-06T05:54:11.646Z,-385.42
2018-12-06T05:55:11.610Z,-383.25
2018-12-06T05:56:13.763Z,-383.07
2018-12-06T05:57:13.780Z,-386.18
2018-12-06T05:58:11.585Z,-383.24
2018-12-06T05:59:11.595Z,-380.63
2018-12-06T06:00:11.641Z,-380.62
2018-12-06T06:01:11.539Z,-383.99
2018-12-06T06:02:11.546Z,-386.59
2018-12-06T06:03:11.520Z,-386.63
2018-12-06T06:04:14.487Z,-385.42
2018-12-06T06:05:11.509Z,-383.37
2018-12-06T06:06:11.489Z,-385.71
2018-12-06T06:07:11.480Z,-386.09
2018-12-06T06:08:11.465Z,-384.34
2018-12-06T06:09:11.484Z,-380.63
2018-12-06T06:10:11.474Z,-384.45
2018-12-06T06:11:12.981Z,-385.30
2018-12-06T06:12:11.422Z,-383.83
2018-12-06T06:13:11.408Z,-383.84
2018-12-06T06:14:12.424Z,-384.45
2018-12-06T06:15:11.408Z,-385.15
2018-12-06T06:16:11.397Z,-383.22
2018-12-06T06:17:11.388Z,-383.36
2018-12-06T06:18:11.376Z,-383.47
2018-12-06T06:19:11.356Z,-384.14
2018-12-06T06:20:12.985Z,-384.40
2018-12-06T06:21:11.380Z,-384.91
2018-12-06T06:22:11.363Z,-382.15
2018-12-06T06:23:11.984Z,-379.56
2018-12-06T06:24:18.478Z,-380.89
2018-12-06T06:25:11.280Z,-381.44
2018-12-06T06:26:11.276Z,-382.88
2018-12-06T06:27:11.298Z,-385.36
2018-12-06T06:28:11.963Z,-383.02
2018-12-06T06:29:11.252Z,-385.00
2018-12-06T06:30:11.963Z,-384.66
2018-12-06T06:31:11.996Z,-383.88
2018-12-06T06:32:11.220Z,-381.24
2018-12-06T06:33:11.202Z,-385.31
2018-12-06T06:34:11.203Z,-383.30
2018-12-06T06:35:11.179Z,-382.89
2018-12-06T06:36:11.163Z,-385.36
2018-12-06T06:37:11.155Z,-384.18
2018-12-06T06:38:11.141Z,-384.14
2018-12-06T06:39:11.522Z,-383.68
2018-12-06T06:40:11.121Z,-384.47
2018-12-06T06:41:19.277Z,-382.72
2018-12-06T06:42:19.308Z,-381.10
2018-12-06T06:43:20.104Z,-381.61
2018-12-06T06:44:19.653Z,-381.09
2018-12-06T06:45:11.075Z,-381.68
2018-12-06T06:46:11.624Z,-385.00
2018-12-06T06:47:11.044Z,-381.25
2018-12-06T06:48:11.030Z,-382.93
2018-12-06T06:49:14.023Z,-383.76
2018-12-06T06:50:11.037Z,-383.12
2018-12-06T06:51:11.011Z,-382.84
2018-12-06T06:52:10.984Z,-382.96
2018-12-06T06:53:10.980Z,-381.86
2018-12-06T06:54:10.972Z,-380.70
2018-12-06T06:55:10.958Z,-381.17
2018-12-06T06:56:10.974Z,-380.87
2018-12-06T06:57:11.938Z,-381.69
2018-12-06T06:58:10.936Z,-381.33
2018-12-06T06:59:10.914Z,-381.47
2018-12-06T07:00:10.913Z,-382.09
2018-12-06T07:01:10.921Z,-380.56
2018-12-06T07:02:10.905Z,-381.98
2018-12-06T07:03:11.598Z,-381.75
2018-12-06T07:04:10.871Z,-382.13
2018-12-06T07:05:10.857Z,-383.98
2018-12-06T07:06:13.164Z,-381.00
2018-12-06T07:07:10.868Z,-380.57
2018-12-06T07:08:11.619Z,-379.48
2018-12-06T07:09:10.808Z,-382.36
2018-12-06T07:10:10.809Z,-381.58
2018-12-06T07:11:10.803Z,-382.42
2018-12-06T07:12:10.807Z,-380.02
2018-12-06T07:13:10.788Z,-379.10
2018-12-06T07:14:10.777Z,-379.01
2018-12-06T07:15:10.763Z,-382.03
2018-12-06T07:16:10.749Z,-380.88
2018-12-06T07:17:10.760Z,-381.33
2018-12-06T07:18:10.750Z,-382.12
2018-12-06T07:19:10.710Z,-378.01
2018-12-06T07:20:10.710Z,-379.50
2018-12-06T07:21:10.706Z,-379.37
2018-12-06T07:22:10.678Z,-376.68
2018-12-06T07:23:10.722Z,-381.50
2018-12-06T07:24:10.701Z,-381.61
2018-12-06T07:25:10.697Z,-379.29
2018-12-06T07:26:10.661Z,-381.75
2018-12-06T07:27:10.629Z,-378.22
2018-12-06T07:28:10.615Z,-382.52
2018-12-06T07:29:13.099Z,-380.17
2018-12-06T07:30:12.695Z,-380.32
2018-12-06T07:31:10.603Z,-380.04
2018-12-06T07:32:10.601Z,-380.38
2018-12-06T07:33:10.602Z,-381.25
2018-12-06T07:34:10.583Z,-380.28
2018-12-06T07:35:10.553Z,-379.51
2018-12-06T07:36:12.154Z,-381.46
2018-12-06T07:37:10.534Z,-380.36
2018-12-06T07:38:17.646Z,-382.81
2018-12-06T07:39:13.178Z,-381.67
2018-12-06T07:40:10.556Z,-379.18
2018-12-06T07:41:10.521Z,-380.62
2018-12-06T07:42:10.541Z,-380.72
2018-12-06T07:43:10.460Z,-379.48
2018-12-06T07:44:17.577Z,-378.71
2018-12-06T07:45:18.078Z,-380.97
2018-12-06T07:46:10.432Z,-379.47
2018-12-06T07:47:18.591Z,-379.58
2018-12-06T07:48:17.606Z,-380.47
2018-12-06T07:49:17.523Z,-380.75
2018-12-06T07:50:17.550Z,-381.07
2018-12-06T07:51:17.535Z,-381.26
2018-12-06T07:52:10.359Z,-379.77
2018-12-06T07:53:17.587Z,-380.29
2018-12-06T07:54:18.544Z,-382.10
2018-12-06T07:55:10.320Z,-381.33
2018-12-06T07:56:10.389Z,-379.26
2018-12-06T07:57:10.302Z,-378.21
2018-12-06T07:58:10.313Z,-379.49
2018-12-06T07:59:10.282Z,-380.52
2018-12-06T08:00:11.036Z,-380.29
2018-12-06T08:01:10.256Z,-379.44
2018-12-06T08:02:10.260Z,-380.47
2018-12-06T08:03:10.240Z,-383.04
2018-12-06T08:04:10.235Z,-379.92
2018-12-06T08:05:10.213Z,-379.71
2018-12-06T08:06:11.004Z,-380.38
2018-12-06T08:07:10.207Z,-382.73
2018-12-06T08:08:10.211Z,-378.81
2018-12-06T08:09:10.176Z,-380.12
2018-12-06T08:10:10.190Z,-381.55
2018-12-06T08:11:10.184Z,-381.80
2018-12-06T08:12:11.020Z,-380.75
2018-12-06T08:13:10.154Z,-380.23
2018-12-06T08:14:10.164Z,-381.65
2018-12-06T08:15:10.136Z,-380.10
2018-12-06T08:16:10.146Z,-381.32
2018-12-06T08:17:10.095Z,-382.24
2018-12-06T08:18:10.103Z,-382.40
2018-12-06T08:19:10.101Z,-384.02
2018-12-06T08:20:10.062Z,-382.26
2018-12-06T08:21:12.057Z,-382.01
2018-12-06T08:22:10.052Z,-380.95
2018-12-06T08:23:10.041Z,-382.04
2018-12-06T08:24:10.047Z,-378.88
2018-12-06T08:25:10.021Z,-380.51
2018-12-06T08:26:10.001Z,-379.28
2018-12-06T08:27:11.537Z,-379.78
2018-12-06T08:28:10.519Z,-383.19
2018-12-06T08:29:10.016Z,-383.37
2018-12-06T08:30:10.952Z,-383.53
2018-12-06T08:31:09.940Z,-382.25
2018-12-06T08:32:09.945Z,-382.82
2018-12-06T08:33:09.927Z,-379.66
2018-12-06T08:34:09.918Z,-381.58
2018-12-06T08:35:09.937Z,-382.50
2018-12-06T08:36:09.895Z,-382.90
2018-12-06T08:37:09.882Z,-383.11
2018-12-06T08:38:09.868Z,-381.88
2018-12-06T08:39:09.872Z,-383.68
2018-12-06T08:40:09.859Z,-382.01
2018-12-06T08:41:11.553Z,-384.75
2018-12-06T08:42:09.829Z,-382.98
2018-12-06T08:43:09.813Z,-382.59
2018-12-06T08:44:09.841Z,-385.38
2018-12-06T08:45:09.804Z,-381.18
2018-12-06T08:46:09.784Z,-380.52
2018-12-06T08:47:09.808Z,-383.30
2018-12-06T08:48:10.776Z,-383.25
2018-12-06T08:49:09.756Z,-383.13
2018-12-06T08:50:09.746Z,-379.43
2018-12-06T08:51:09.765Z,-383.25
2018-12-06T08:52:09.719Z,-385.37
2018-12-06T08:53:09.754Z,-381.78
2018-12-06T08:54:09.727Z,-386.16
2018-12-06T08:55:09.700Z,-384.54
2018-12-06T08:56:09.693Z,-383.87
2018-12-06T08:57:09.669Z,-383.40
2018-12-06T08:58:10.524Z,-385.57
2018-12-06T08:59:09.665Z,-385.29
2018-12-06T09:00:09.643Z,-384.81
2018-12-06T09:01:09.639Z,-383.52
2018-12-06T09:02:09.623Z,-386.77
2018-12-06T09:03:09.616Z,-386.25
2018-12-06T09:04:10.649Z,-383.10
2018-12-06T09:05:09.589Z,-385.35
2018-12-06T09:06:09.571Z,-385.74
2018-12-06T09:07:09.562Z,-385.22
2018-12-06T09:08:09.541Z,-385.70
2018-12-06T09:09:09.558Z,-384.48
2018-12-06T09:10:09.566Z,-387.74
2018-12-06T09:11:09.565Z,-384.51
2018-12-06T09:12:10.528Z,-382.75
2018-12-06T09:13:10.512Z,-385.07
2018-12-06T09:14:09.487Z,-385.22
2018-12-06T09:15:11.059Z,-384.67
2018-12-06T09:16:09.464Z,-385.47
2018-12-06T09:17:09.472Z,-386.08
2018-12-06T09:18:09.443Z,-384.61
2018-12-06T09:19:09.447Z,-385.14
2018-12-06T09:20:09.425Z,-383.70
2018-12-06T09:21:09.432Z,-384.90
2018-12-06T09:22:09.432Z,-386.14
2018-12-06T09:23:09.410Z,-384.96
2018-12-06T09:24:09.380Z,-383.22
2018-12-06T09:25:09.366Z,-387.50
2018-12-06T09:26:09.360Z,-385.82
2018-12-06T09:27:11.049Z,-385.65
2018-12-06T09:28:09.372Z,-383.47
2018-12-06T09:29:09.333Z,-383.61
2018-12-06T09:30:09.318Z,-382.95
2018-12-06T09:31:09.318Z,-384.47
2018-12-06T09:32:09.324Z,-383.39
2018-12-06T09:33:10.002Z,-382.30
2018-12-06T09:34:09.275Z,-385.10
2018-12-06T09:35:09.260Z,-383.61
2018-12-06T09:36:09.264Z,-384.43
2018-12-06T09:37:09.237Z,-384.28
2018-12-06T09:38:09.282Z,-382.19
2018-12-06T09:39:09.231Z,-382.42
2018-12-06T09:40:09.206Z,-382.67
2018-12-06T09:41:09.198Z,-382.88
2018-12-06T09:42:09.195Z,-384.87
2018-12-06T09:43:09.173Z,-383.01
2018-12-06T09:44:09.181Z,-382.29
2018-12-06T09:45:09.159Z,-383.04
2018-12-06T09:46:09.147Z,-382.96
2018-12-06T09:47:09.135Z,-382.62
2018-12-06T09:49:04.748Z,-315.49
2018-12-06T09:50:02.724Z,-381.28
2018-12-06T09:51:01.014Z,-380.98
2018-12-06T09:52:01.698Z,-384.11
2018-12-06T09:53:00.924Z,-381.93
2018-12-06T09:54:00.918Z,-381.40
2018-12-06T09:55:01.250Z,-379.80
2018-12-06T09:56:02.737Z,-381.01
2018-12-06T09:57:00.870Z,-380.64
2018-12-06T09:58:00.883Z,-383.88
2018-12-06T09:59:00.858Z,-383.61
2018-12-06T10:00:01.666Z,-379.97
2018-12-06T10:01:00.842Z,-381.58
2018-12-06T10:02:00.837Z,-380.29
2018-12-06T10:03:00.832Z,-381.58
2018-12-06T10:04:00.823Z,-382.90
2018-12-06T10:05:00.794Z,-380.89
2018-12-06T10:06:00.832Z,-381.76
2018-12-06T10:07:00.780Z,-381.21
2018-12-06T10:08:01.776Z,-380.47
2018-12-06T10:09:03.780Z,-380.06
2018-12-06T10:10:00.791Z,-381.16
2018-12-06T10:11:00.761Z,-381.66
2018-12-06T10:12:04.232Z,-380.06
2018-12-06T10:13:00.708Z,-380.21
2018-12-06T10:14:02.262Z,-379.49
2018-12-06T10:15:00.690Z,-381.80
2018-12-06T10:16:00.698Z,-380.20
2018-12-06T10:17:00.747Z,-381.08
2018-12-06T10:18:03.284Z,-378.83
2018-12-06T10:19:03.245Z,-378.32
2018-12-06T10:20:00.645Z,-377.60
2018-12-06T10:21:00.654Z,-378.90
2018-12-06T10:22:00.665Z,-379.56
2018-12-06T10:23:00.617Z,-378.63
2018-12-06T10:24:00.652Z,-379.63
2018-12-06T10:25:01.257Z,-378.86
2018-12-06T10:26:03.239Z,-377.99
2018-12-06T10:27:02.213Z,-377.26
2018-12-06T10:28:01.191Z,-382.63
2018-12-06T10:29:00.559Z,-376.97
2018-12-06T10:30:00.540Z,-376.96
2018-12-06T10:31:03.229Z,-377.52
2018-12-06T10:32:00.523Z,-380.23
2018-12-06T10:33:00.506Z,-378.22
2018-12-06T10:34:00.495Z,-377.99
2018-12-06T10:35:00.500Z,-380.11
2018-12-06T10:36:00.473Z,-381.33
2018-12-06T10:37:02.239Z,-378.50
2018-12-06T10:38:00.452Z,-380.63
2018-12-06T10:39:00.457Z,-380.18
2018-12-06T10:40:02.238Z,-377.86
2018-12-06T10:41:00.422Z,-377.93
2018-12-06T10:42:01.255Z,-378.41
2018-12-06T10:43:00.415Z,-380.30
2018-12-06T10:44:00.399Z,-377.96
2018-12-06T10:45:00.413Z,-380.32
2018-12-06T10:46:00.363Z,-380.90
2018-12-06T10:47:07.529Z,-378.77
2018-12-06T10:48:08.334Z,-379.25
2018-12-06T10:49:00.331Z,-381.08
2018-12-06T10:50:08.479Z,-382.17
2018-12-06T10:51:07.701Z,-382.37
2018-12-06T10:52:00.298Z,-380.05
2018-12-06T10:53:00.313Z,-379.63
2018-12-06T10:54:00.278Z,-380.54
2018-12-06T10:55:00.281Z,-381.43
2018-12-06T10:56:00.276Z,-380.59
2018-12-06T10:57:00.255Z,-379.76
2018-12-06T10:58:00.238Z,-377.80
2018-12-06T10:59:00.220Z,-379.58
2018-12-06T11:00:01.884Z,-377.42
2018-12-06T11:01:00.202Z,-379.00
2018-12-06T11:02:01.206Z,-379.09
2018-12-06T11:03:00.180Z,-378.16
2018-12-06T11:04:00.184Z,-379.78
2018-12-06T11:05:00.171Z,-378.89
2018-12-06T11:06:00.885Z,-379.80
2018-12-06T11:07:01.887Z,-379.67
2018-12-06T11:08:00.163Z,-381.00
2018-12-06T11:09:00.117Z,-378.94
2018-12-06T11:10:00.114Z,-380.20
2018-12-06T11:11:00.096Z,-378.97
2018-12-06T11:12:00.111Z,-379.45
2018-12-06T11:13:00.087Z,-379.23
2018-12-06T11:14:01.946Z,-381.18
2018-12-06T11:15:00.063Z,-380.54
2018-12-06T11:16:00.094Z,-380.06
2018-12-06T11:17:00.029Z,-380.45
2018-12-06T11:18:00.064Z,-379.79
2018-12-06T11:19:00.074Z,-380.27
2018-12-06T11:20:00.084Z,-380.14
2018-12-06T11:20:59.998Z,-382.04
2018-12-06T11:22:01.940Z,-376.62
2018-12-06T11:22:59.994Z,-377.95
2018-12-06T11:23:59.967Z,-380.51
2018-12-06T11:24:59.987Z,-378.80
2018-12-06T11:25:59.970Z,-381.73
2018-12-06T11:26:59.934Z,-383.95
2018-12-06T11:27:59.935Z,-380.86
2018-12-06T11:29:01.887Z,-381.70
2018-12-06T11:29:59.914Z,-379.98
2018-12-06T11:30:59.912Z,-379.83
2018-12-06T11:32:00.927Z,-379.53
2018-12-06T11:32:59.870Z,-379.30
2018-12-06T11:33:59.873Z,-376.45
2018-12-06T11:34:59.863Z,-379.85
2018-12-06T11:36:01.402Z,-380.04
2018-12-06T11:36:59.846Z,-378.23
2018-12-06T11:37:59.818Z,-378.57
2018-12-06T11:38:59.803Z,-378.31
2018-12-06T11:39:59.790Z,-378.12
2018-12-06T11:40:59.804Z,-377.32
2018-12-06T11:41:59.818Z,-379.96
2018-12-06T11:43:00.367Z,-377.85
2018-12-06T11:43:59.758Z,-376.65
2018-12-06T11:44:59.764Z,-377.76
2018-12-06T11:46:00.390Z,-378.40
2018-12-06T11:46:59.756Z,-377.20
2018-12-06T11:47:59.723Z,-378.73
2018-12-06T11:48:59.742Z,-378.32
2018-12-06T11:49:59.711Z,-375.45
2018-12-06T11:50:59.695Z,-376.60
2018-12-06T11:51:59.687Z,-376.19
2018-12-06T11:52:59.679Z,-380.08
2018-12-06T11:53:59.656Z,-379.50
2018-12-06T11:54:59.657Z,-378.15
2018-12-06T11:55:59.630Z,-379.54
2018-12-06T11:56:59.646Z,-378.61
2018-12-06T11:58:00.395Z,-379.50
2018-12-06T11:58:59.620Z,-380.50
2018-12-06T11:59:59.582Z,-379.50
2018-12-06T12:00:59.608Z,-378.41
2018-12-06T12:01:59.557Z,-379.43
2018-12-06T12:02:59.550Z,-378.91
2018-12-06T12:03:59.540Z,-380.08
2018-12-06T12:04:59.528Z,-378.11
2018-12-06T12:05:59.530Z,-380.12